Time;durP1;ratioP1;P1;durP2;ratioP2;P2;SDS_P1;SDS_P2;PMS_P1;PMS_P2;Temp;Humidity;BMP_temperature;BMP_pressure;BME280_temperature;BME280_humidity;BME280_pressure;Samples;Min_cycle;Max_cycle;Signal;HPM_P1;HPM_P2
2022/11/28 00:02:10;;;;;;;40.97;18.50;;;;;;;;;;6154435;23;20006;-75
2022/11/28 00:04:36;;;;;;;33.28;16.42;;;;;;;;;;6154907;23;20108;-74
2022/11/28 00:07:03;;;;;;;36.35;18.98;;;;;;;;;;6155833;23;20005;-76
2022/11/28 00:09:29;;;;;;;36.75;17.92;;;;;;;;;;6156032;23;20002;-75
2022/11/28 00:11:55;;;;;;;28.27;16.73;;;;;;;;;;6156634;23;19994;-76
2022/11/28 00:14:21;;;;;;;31.02;15.75;;;;;;;;;;6130250;23;20005;-76
2022/11/28 00:16:47;;;;;;;27.27;15.50;;;;;;;;;;6130234;23;20044;-76
2022/11/28 00:19:13;;;;;;;30.40;16.33;;;;;;;;;;6156000;23;20006;-77
2022/11/28 00:21:40;;;;;;;28.02;16.55;;;;;;;;;;6156144;23;20002;-78
2022/11/28 00:24:06;;;;;;;30.33;15.57;;;;;;;;;;6155982;23;20006;-76
2022/11/28 00:26:36;;;;;;;31.60;15.23;;;;;;;;;;6156769;23;20025;-78
2022/11/28 00:29:03;;;;;;;32.63;15.50;;;;;;;;;;6156169;23;20061;-77
2022/11/28 00:31:31;;;;;;;26.90;15.82;;;;;;;;;;6156469;23;20325;-77
2022/11/28 00:33:57;;;;;;;30.38;15.15;;;;;;;;;;6156270;23;20001;-77
2022/11/28 00:36:24;;;;;;;29.77;15.52;;;;;;;;;;6155756;23;20068;-76
2022/11/28 00:38:50;;;;;;;32.05;15.90;;;;;;;;;;6155347;23;20002;-76
2022/11/28 00:41:17;;;;;;;30.02;16.20;;;;;;;;;;6129626;23;20358;-77
2022/11/28 00:43:44;;;;;;;31.25;15.55;;;;;;;;;;6155521;23;20387;-76
2022/11/28 00:46:11;;;;;;;33.42;16.80;;;;;;;;;;6156524;23;20057;-76
2022/11/28 00:48:37;;;;;;;27.73;15.52;;;;;;;;;;6155460;23;20009;-77
2022/11/28 00:51:08;;;;;;;29.52;14.98;;;;;;;;;;6156129;23;20006;-76
2022/11/28 00:53:34;;;;;;;37.40;16.45;;;;;;;;;;6156543;23;20384;-76
2022/11/28 00:56:03;;;;;;;33.72;16.55;;;;;;;;;;6156422;23;20024;-76
2022/11/28 00:58:29;;;;;;;31.65;15.98;;;;;;;;;;6155790;23;19998;-76
2022/11/28 01:00:55;;;;;;;29.88;16.13;;;;;;;;;;6159159;23;20012;-76
2022/11/28 01:03:21;;;;;;;28.77;15.40;;;;;;;;;;6161073;23;20119;-76
2022/11/28 01:05:46;;;;;;;30.33;17.40;;;;;;;;;;6160515;23;20021;-75
2022/11/28 01:08:12;;;;;;;29.23;15.93;;;;;;;;;;6161890;23;20002;-76
2022/11/28 01:10:42;;;;;;;29.52;16.73;;;;;;;;;;6162725;23;20453;-76
2022/11/28 01:13:08;;;;;;;28.38;15.80;;;;;;;;;;6158179;23;20024;-76
2022/11/28 01:15:35;;;;;;;27.23;15.00;;;;;;;;;;6155077;23;19997;-76
2022/11/28 01:18:02;;;;;;;35.25;17.35;;;;;;;;;;6154848;23;19997;-76
2022/11/28 01:20:28;;;;;;;36.33;16.90;;;;;;;;;;6155333;23;20060;-76
2022/11/28 01:22:54;;;;;;;33.92;16.58;;;;;;;;;;6129121;23;20059;-76
2022/11/28 01:25:20;;;;;;;30.15;16.02;;;;;;;;;;6154909;23;20464;-76
2022/11/28 01:27:46;;;;;;;30.90;16.67;;;;;;;;;;6154746;23;20114;-76
2022/11/28 01:30:12;;;;;;;32.88;16.95;;;;;;;;;;6155265;23;20006;-76
2022/11/28 01:32:38;;;;;;;32.67;17.50;;;;;;;;;;6155339;23;20033;-76
2022/11/28 01:35:04;;;;;;;34.72;17.27;;;;;;;;;;6154839;23;20014;-76
2022/11/28 01:37:31;;;;;;;33.50;16.80;;;;;;;;;;6128461;23;20002;-75
2022/11/28 01:39:57;;;;;;;31.75;15.15;;;;;;;;;;6154918;23;20013;-76
2022/11/28 01:42:23;;;;;;;31.25;17.08;;;;;;;;;;6155208;23;20337;-76
2022/11/28 01:44:49;;;;;;;31.02;15.98;;;;;;;;;;6154942;23;19997;-76
2022/11/28 01:47:16;;;;;;;34.15;17.05;;;;;;;;;;6154507;23;20089;-75
2022/11/28 01:49:44;;;;;;;26.67;14.38;;;;;;;;;;6155484;23;20006;-76
2022/11/28 01:52:12;;;;;;;36.60;16.40;;;;;;;;;;6154668;23;20002;-76
2022/11/28 01:54:39;;;;;;;32.10;17.83;;;;;;;;;;6154614;23;20516;-76
2022/11/28 01:57:07;;;;;;;30.25;15.80;;;;;;;;;;6154734;23;20002;-76
2022/11/28 01:59:36;;;;;;;31.50;15.02;;;;;;;;;;6154928;23;20006;-77
2022/11/28 02:02:05;;;;;;;25.42;13.60;;;;;;;;;;6154704;23;20461;-76
2022/11/28 02:04:31;;;;;;;27.40;15.30;;;;;;;;;;6129470;23;20024;-75
2022/11/28 02:06:57;;;;;;;25.95;15.05;;;;;;;;;;6154862;23;20013;-75
2022/11/28 02:09:23;;;;;;;27.70;14.63;;;;;;;;;;6128860;23;20012;-76
2022/11/28 02:11:58;;;;;;;28.00;14.90;;;;;;;;;;6128908;23;20025;-76
2022/11/28 02:14:27;;;;;;;26.80;15.63;;;;;;;;;;6154517;23;20017;-77
2022/11/28 02:17:08;;;;;;;28.58;14.70;;;;;;;;;;6127793;23;20081;-76
2022/11/28 02:19:53;;;;;;;28.25;14.98;;;;;;;;;;6126752;23;20006;-76
2022/11/28 02:22:28;;;;;;;26.42;14.27;;;;;;;;;;6126403;23;20056;-78
2022/11/28 02:24:54;;;;;;;27.02;14.30;;;;;;;;;;6152811;23;20338;-77
2022/11/28 02:27:58;;;;;;;29.58;15.88;;;;;;;;;;6152075;23;20299;-76
2022/11/28 02:30:27;;;;;;;31.98;15.23;;;;;;;;;;6005075;23;20007;-76
2022/11/28 02:33:08;;;;;;;27.17;15.50;;;;;;;;;;6005535;23;20548;-77
2022/11/28 02:35:34;;;;;;;27.00;14.70;;;;;;;;;;6093959;23;20001;-76
2022/11/28 02:38:00;;;;;;;27.67;15.25;;;;;;;;;;6128345;23;20017;-76
2022/11/28 02:40:38;;;;;;;30.77;14.93;;;;;;;;;;6154323;23;20006;-77
2022/11/28 02:43:19;;;;;;;26.38;15.70;;;;;;;;;;6154792;23;20001;-76
2022/11/28 02:45:49;;;;;;;34.15;16.63;;;;;;;;;;6154376;23;20005;-77
2022/11/28 02:48:23;;;;;;;24.57;12.23;;;;;;;;;;6154099;23;20052;-78
2022/11/28 02:50:55;;;;;;;25.48;14.50;;;;;;;;;;6154656;23;20002;-76
2022/11/28 02:53:24;;;;;;;28.17;14.00;;;;;;;;;;6154469;23;19998;-75
2022/11/28 02:55:51;;;;;;;25.10;14.13;;;;;;;;;;6128122;23;20084;-75
2022/11/28 02:58:17;;;;;;;29.33;12.95;;;;;;;;;;6154168;23;20005;-76
2022/11/28 03:00:45;;;;;;;32.83;14.85;;;;;;;;;;6154027;23;20001;-75
2022/11/28 03:03:14;;;;;;;29.65;14.88;;;;;;;;;;6127987;23;20006;-75
2022/11/28 03:05:55;;;;;;;27.25;14.40;;;;;;;;;;6153916;23;20013;-76
2022/11/28 03:08:40;;;;;;;26.77;14.48;;;;;;;;;;6153834;23;20006;-76
2022/11/28 03:11:14;;;;;;;30.13;15.48;;;;;;;;;;6154540;23;20001;-77
2022/11/28 03:13:40;;;;;;;26.48;13.70;;;;;;;;;;6154417;23;20085;-76
2022/11/28 03:16:13;;;;;;;26.23;14.07;;;;;;;;;;6154125;23;20006;-76
2022/11/28 03:18:50;;;;;;;24.83;12.90;;;;;;;;;;6154235;23;20334;-76
2022/11/28 03:21:17;;;;;;;26.65;13.80;;;;;;;;;;6155232;23;20527;-75
2022/11/28 03:23:51;;;;;;;28.02;14.10;;;;;;;;;;6155083;23;20005;-74
2022/11/28 03:26:27;;;;;;;27.38;14.23;;;;;;;;;;6154050;23;20039;-76
2022/11/28 03:29:08;;;;;;;26.30;13.77;;;;;;;;;;6153773;23;20088;-75
2022/11/28 03:31:44;;;;;;;29.17;14.48;;;;;;;;;;6128146;23;20442;-76
2022/11/28 03:34:14;;;;;;;24.98;13.55;;;;;;;;;;6128017;23;20053;-76
2022/11/28 03:36:43;;;;;;;26.73;13.15;;;;;;;;;;6128088;23;20008;-75
2022/11/28 03:39:11;;;;;;;26.95;13.70;;;;;;;;;;6127717;23;20009;-76
2022/11/28 03:41:47;;;;;;;25.77;13.43;;;;;;;;;;6154045;23;20509;-76
2022/11/28 03:44:16;;;;;;;26.55;13.40;;;;;;;;;;6154004;23;20327;-77
2022/11/28 03:46:45;;;;;;;24.80;13.27;;;;;;;;;;6154373;23;20086;-77
2022/11/28 03:49:12;;;;;;;27.45;13.45;;;;;;;;;;6153837;23;20338;-76
2022/11/28 03:51:47;;;;;;;26.45;14.40;;;;;;;;;;6154309;23;20006;-76
2022/11/28 03:54:21;;;;;;;29.08;14.32;;;;;;;;;;6154289;23;20430;-76
2022/11/28 03:56:56;;;;;;;27.10;13.43;;;;;;;;;;6161834;23;20001;-76
2022/11/28 03:59:28;;;;;;;25.83;13.82;;;;;;;;;;6137960;23;20343;-78
2022/11/28 04:01:57;;;;;;;25.10;13.25;;;;;;;;;;6136451;23;20442;-77
2022/11/28 04:04:46;;;;;;;25.17;13.73;;;;;;;;;;6161028;23;20010;-77
2022/11/28 04:07:31;;;;;;;24.15;14.60;;;;;;;;;;6128347;23;20056;-75
2022/11/28 04:10:09;;;;;;;23.13;13.38;;;;;;;;;;6154524;23;20015;-75
2022/11/28 04:12:50;;;;;;;30.38;14.13;;;;;;;;;;6153857;23;20009;-76
2022/11/28 04:15:16;;;;;;;;;;;;;;;;;;6128446;23;20005;-76
2022/11/28 04:17:49;;;;;;;26.70;13.38;;;;;;;;;;6154074;23;19947;-76
2022/11/28 04:20:18;;;;;;;25.20;14.50;;;;;;;;;;6154048;23;20006;-76
2022/11/28 04:22:48;;;;;;;26.60;12.98;;;;;;;;;;6153968;23;20048;-77
2022/11/28 04:25:15;;;;;;;27.98;14.88;;;;;;;;;;6153962;23;20006;-77
2022/11/28 04:27:46;;;;;;;26.92;14.73;;;;;;;;;;6153553;23;20437;-77
2022/11/28 04:30:12;;;;;;;27.13;13.07;;;;;;;;;;6127889;23;20006;-78
2022/11/28 04:32:39;;;;;;;25.05;13.25;;;;;;;;;;6155065;23;20004;-76
2022/11/28 04:35:10;;;;;;;27.05;13.70;;;;;;;;;;6131572;23;20040;-76
2022/11/28 04:37:38;;;;;;;29.75;14.10;;;;;;;;;;6166975;23;20005;-77
2022/11/28 04:40:05;;;;;;;24.83;13.45;;;;;;;;;;6175383;23;20367;-75
2022/11/28 04:42:51;;;;;;;23.33;13.48;;;;;;;;;;6177123;23;20005;-75
2022/11/28 04:45:21;;;;;;;30.95;13.75;;;;;;;;;;6164066;23;20068;-76
2022/11/28 04:47:47;;;;;;;24.52;13.48;;;;;;;;;;6147248;23;20029;-76
2022/11/28 04:50:14;;;;;;;28.63;13.88;;;;;;;;;;6174450;23;20049;-76
2022/11/28 04:52:46;;;;;;;25.92;14.20;;;;;;;;;;6175114;23;20051;-78
2022/11/28 04:55:30;;;;;;;31.58;14.85;;;;;;;;;;6172207;23;19998;-78
2022/11/28 04:58:05;;;;;;;28.00;15.82;;;;;;;;;;6163666;23;20009;-77
2022/11/28 05:00:33;;;;;;;28.48;15.13;;;;;;;;;;6156154;23;20009;-77
2022/11/28 05:03:00;;;;;;;28.27;16.00;;;;;;;;;;6155775;23;20005;-77
2022/11/28 05:05:27;;;;;;;28.55;16.63;;;;;;;;;;6156203;23;20021;-78
2022/11/28 05:07:53;;;;;;;30.27;14.73;;;;;;;;;;6155373;23;20251;-77
2022/11/28 05:10:19;;;;;;;29.95;16.67;;;;;;;;;;6155686;23;20033;-77
2022/11/28 05:12:45;;;;;;;27.95;15.20;;;;;;;;;;6155645;23;20005;-76
2022/11/28 05:15:11;;;;;;;28.13;15.80;;;;;;;;;;6155326;23;20005;-77
2022/11/28 05:17:37;;;;;;;30.52;15.18;;;;;;;;;;6155064;23;20002;-78
2022/11/28 05:20:05;;;;;;;27.50;16.25;;;;;;;;;;6155257;23;20457;-77
2022/11/28 05:22:31;;;;;;;29.95;16.00;;;;;;;;;;6155372;23;20001;-77
2022/11/28 05:24:57;;;;;;;32.33;16.00;;;;;;;;;;6155258;23;20029;-77
2022/11/28 05:27:23;;;;;;;28.38;16.83;;;;;;;;;;6154807;23;20333;-77
2022/11/28 05:29:49;;;;;;;31.02;15.85;;;;;;;;;;6155230;23;20009;-76
2022/11/28 05:32:16;;;;;;;31.48;15.95;;;;;;;;;;6155442;23;20002;-76
2022/11/28 05:34:41;;;;;;;31.60;16.52;;;;;;;;;;6155153;23;20005;-76
2022/11/28 05:37:07;;;;;;;30.08;16.45;;;;;;;;;;6155276;23;19998;-75
2022/11/28 05:39:33;;;;;;;28.10;15.10;;;;;;;;;;6155220;23;20430;-77
2022/11/28 05:42:00;;;;;;;25.83;16.38;;;;;;;;;;6155546;23;20005;-76
2022/11/28 05:44:26;;;;;;;31.33;16.15;;;;;;;;;;6155637;23;20038;-76
2022/11/28 05:46:52;;;;;;;32.38;15.57;;;;;;;;;;6155885;23;20029;-76
2022/11/28 05:49:20;;;;;;;23.92;15.40;;;;;;;;;;6155421;23;20001;-77
2022/11/28 05:51:47;;;;;;;25.63;14.95;;;;;;;;;;6155626;23;19998;-77
2022/11/28 05:54:13;;;;;;;26.00;15.40;;;;;;;;;;6155469;23;20029;-75
2022/11/28 05:56:39;;;;;;;27.58;15.55;;;;;;;;;;6153827;23;20001;-76
2022/11/28 05:59:05;;;;;;;26.55;16.27;;;;;;;;;;6154742;23;19998;-76
2022/11/28 06:01:31;;;;;;;32.90;16.20;;;;;;;;;;6155206;23;20338;-76
2022/11/28 06:03:59;;;;;;;28.00;16.85;;;;;;;;;;6155492;23;20014;-76
2022/11/28 06:06:26;;;;;;;27.73;15.52;;;;;;;;;;6155714;23;20012;-77
2022/11/28 06:08:52;;;;;;;31.00;17.55;;;;;;;;;;6128975;23;20009;-76
2022/11/28 06:11:21;;;;;;;26.25;15.70;;;;;;;;;;6155088;23;20029;-78
2022/11/28 06:13:48;;;;;;;28.10;16.63;;;;;;;;;;6155380;23;20002;-75
2022/11/28 06:16:16;;;;;;;26.85;15.68;;;;;;;;;;6154854;23;20007;-75
2022/11/28 06:18:42;;;;;;;31.98;15.93;;;;;;;;;;6154789;23;20081;-78
2022/11/28 06:21:10;;;;;;;29.27;14.82;;;;;;;;;;6154784;23;20008;-77
2022/11/28 06:23:36;;;;;;;27.83;14.55;;;;;;;;;;6154565;23;20038;-76
2022/11/28 06:26:13;;;;;;;25.52;13.88;;;;;;;;;;6129018;23;20418;-76
2022/11/28 06:28:40;;;;;;;25.92;15.02;;;;;;;;;;6154101;23;20393;-76
2022/11/28 06:31:13;;;;;;;25.48;14.10;;;;;;;;;;6154699;23;20092;-77
2022/11/28 06:33:40;;;;;;;26.77;16.33;;;;;;;;;;6128521;23;20084;-77
2022/11/28 06:36:07;;;;;;;22.15;14.57;;;;;;;;;;6155146;23;20077;-75
2022/11/28 06:38:34;;;;;;;24.05;14.32;;;;;;;;;;6154435;23;20080;-75
2022/11/28 06:41:01;;;;;;;24.85;14.68;;;;;;;;;;6154765;23;20006;-75
2022/11/28 06:43:31;;;;;;;23.38;13.25;;;;;;;;;;6154570;23;20012;-77
2022/11/28 06:45:57;;;;;;;22.75;14.43;;;;;;;;;;6154677;23;20079;-75
2022/11/28 06:48:23;;;;;;;23.17;14.23;;;;;;;;;;6154048;23;20497;-76
2022/11/28 06:50:49;;;;;;;28.33;15.07;;;;;;;;;;6154608;23;20033;-75
2022/11/28 06:53:15;;;;;;;24.48;14.10;;;;;;;;;;6155059;23;20013;-76
2022/11/28 06:55:41;;;;;;;22.85;14.40;;;;;;;;;;6128120;23;20025;-75
2022/11/28 06:58:07;;;;;;;27.15;13.75;;;;;;;;;;6153972;23;20081;-77
2022/11/28 07:00:33;;;;;;;24.00;13.63;;;;;;;;;;6155307;23;20001;-76
2022/11/28 07:02:59;;;;;;;26.05;14.05;;;;;;;;;;6154612;23;20084;-75
2022/11/28 07:05:29;;;;;;;24.52;13.25;;;;;;;;;;6154565;23;20044;-75
2022/11/28 07:07:56;;;;;;;25.77;13.93;;;;;;;;;;6154432;23;20002;-75
2022/11/28 07:10:22;;;;;;;22.70;14.02;;;;;;;;;;6153319;23;20037;-73
2022/11/28 07:12:55;;;;;;;21.83;13.25;;;;;;;;;;6153062;23;20430;-76
2022/11/28 07:15:24;;;;;;;23.88;15.10;;;;;;;;;;6154104;23;20005;-76
2022/11/28 07:17:50;;;;;;;23.10;13.48;;;;;;;;;;6154755;23;20055;-77
2022/11/28 07:20:17;;;;;;;25.65;13.88;;;;;;;;;;6155420;23;20005;-76
2022/11/28 07:22:45;;;;;;;22.40;13.95;;;;;;;;;;6155549;23;20001;-76
2022/11/28 07:25:13;;;;;;;25.38;13.85;;;;;;;;;;6155134;23;20073;-76
2022/11/28 07:27:39;;;;;;;24.33;13.45;;;;;;;;;;6155463;23;20084;-76
2022/11/28 07:30:06;;;;;;;26.98;13.75;;;;;;;;;;6129374;23;20092;-76
2022/11/28 07:32:32;;;;;;;25.17;13.27;;;;;;;;;;6155005;23;20008;-73
2022/11/28 07:34:58;;;;;;;22.88;12.93;;;;;;;;;;6154153;23;20002;-75
2022/11/28 07:37:24;;;;;;;22.83;12.52;;;;;;;;;;6154403;23;20068;-76
2022/11/28 07:39:50;;;;;;;21.80;13.30;;;;;;;;;;6153955;23;20006;-76
2022/11/28 07:42:16;;;;;;;21.48;13.88;;;;;;;;;;6154214;23;20008;-75
2022/11/28 07:44:42;;;;;;;24.40;13.63;;;;;;;;;;6154532;23;20045;-76
2022/11/28 07:47:08;;;;;;;21.70;12.93;;;;;;;;;;6127954;23;20133;-74
2022/11/28 07:49:34;;;;;;;23.48;13.43;;;;;;;;;;6154111;23;20005;-76
2022/11/28 07:52:00;;;;;;;17.80;11.55;;;;;;;;;;6128309;23;20002;-76
2022/11/28 07:54:26;;;;;;;19.70;11.85;;;;;;;;;;6128122;23;20057;-75
2022/11/28 07:56:52;;;;;;;21.63;12.65;;;;;;;;;;6154790;23;20001;-75
2022/11/28 07:59:18;;;;;;;21.08;12.07;;;;;;;;;;6153641;23;20345;-75
2022/11/28 08:01:44;;;;;;;21.20;12.90;;;;;;;;;;6154134;23;20001;-78
2022/11/28 08:04:10;;;;;;;19.77;11.73;;;;;;;;;;6155927;23;20029;-76
2022/11/28 08:06:38;;;;;;;21.98;12.13;;;;;;;;;;6154823;23;20341;-77
2022/11/28 08:09:05;;;;;;;17.05;11.05;;;;;;;;;;6155423;23;20445;-75
2022/11/28 08:11:34;;;;;;;17.23;11.20;;;;;;;;;;6155979;23;20011;-78
2022/11/28 08:14:01;;;;;;;23.58;12.57;;;;;;;;;;6129228;23;19994;-77
2022/11/28 08:16:29;;;;;;;20.88;11.43;;;;;;;;;;6158839;23;19997;-79
2022/11/28 08:18:56;;;;;;;19.58;10.43;;;;;;;;;;6157561;23;20103;-77
2022/11/28 08:21:23;;;;;;;16.77;11.13;;;;;;;;;;6157148;23;20005;-76
2022/11/28 08:23:50;;;;;;;17.13;10.88;;;;;;;;;;6157063;23;20010;-75
2022/11/28 08:26:20;;;;;;;19.52;11.07;;;;;;;;;;6164011;23;20025;-80
2022/11/28 08:28:46;;;;;;;18.13;10.60;;;;;;;;;;6163426;23;20024;-79
2022/11/28 08:31:16;;;;;;;19.58;10.32;;;;;;;;;;6170343;23;20032;-79
2022/11/28 08:33:44;;;;;;;17.92;10.10;;;;;;;;;;6147054;23;20016;-80
2022/11/28 08:36:11;;;;;;;17.83;10.90;;;;;;;;;;6170665;23;20002;-79
2022/11/28 08:38:38;;;;;;;20.77;10.23;;;;;;;;;;6163320;23;20089;-79
2022/11/28 08:41:05;;;;;;;17.20;10.48;;;;;;;;;;6162720;23;20001;-79
2022/11/28 08:43:33;;;;;;;18.15;11.25;;;;;;;;;;6158678;23;20435;-80
2022/11/28 08:45:59;;;;;;;18.73;10.80;;;;;;;;;;6157365;23;20018;-79
2022/11/28 08:48:25;;;;;;;17.45;10.60;;;;;;;;;;6158347;23;20001;-76
2022/11/28 08:50:51;;;;;;;15.55;10.32;;;;;;;;;;6128898;23;20081;-77
2022/11/28 08:53:17;;;;;;;19.67;11.65;;;;;;;;;;6154718;23;20013;-77
2022/11/28 08:55:43;;;;;;;14.20;8.85;;;;;;;;;;6155288;23;20478;-77
2022/11/28 08:58:12;;;;;;;18.75;10.85;;;;;;;;;;6154928;23;19998;-75
2022/11/28 09:00:39;;;;;;;17.00;10.75;;;;;;;;;;6155543;23;20016;-77
2022/11/28 09:03:05;;;;;;;18.02;11.30;;;;;;;;;;6155842;23;20001;-76
2022/11/28 09:05:31;;;;;;;18.05;10.82;;;;;;;;;;6153974;23;20508;-77
2022/11/28 09:07:57;;;;;;;18.40;10.68;;;;;;;;;;6152243;23;20461;-77
2022/11/28 09:10:24;;;;;;;16.45;10.05;;;;;;;;;;6154104;23;20469;-76
2022/11/28 09:12:50;;;;;;;17.55;10.65;;;;;;;;;;6153479;23;20005;-77
2022/11/28 09:15:17;;;;;;;18.50;11.23;;;;;;;;;;6154491;23;20367;-76
2022/11/28 09:17:44;;;;;;;16.95;11.10;;;;;;;;;;6154828;23;20493;-76
2022/11/28 09:20:10;;;;;;;18.08;10.45;;;;;;;;;;6127202;23;20010;-77
2022/11/28 09:22:36;;;;;;;16.42;11.13;;;;;;;;;;6153153;23;20005;-76
2022/11/28 09:25:02;;;;;;;16.08;10.85;;;;;;;;;;6154235;23;20001;-74
2022/11/28 09:27:28;;;;;;;19.17;10.43;;;;;;;;;;6154267;23;20087;-77
2022/11/28 09:29:54;;;;;;;18.13;10.27;;;;;;;;;;6153916;23;19997;-75
2022/11/28 09:32:20;;;;;;;17.98;10.82;;;;;;;;;;6155110;23;20005;-77
2022/11/28 09:34:46;;;;;;;19.67;12.63;;;;;;;;;;6154186;23;20029;-77
2022/11/28 09:37:12;;;;;;;18.75;11.50;;;;;;;;;;6153600;23;20153;-77
2022/11/28 09:39:39;;;;;;;20.27;11.10;;;;;;;;;;6128471;23;20009;-75
2022/11/28 09:42:09;;;;;;;19.05;11.48;;;;;;;;;;6155362;23;20191;-76
2022/11/28 09:44:41;;;;;;;20.10;12.52;;;;;;;;;;6157134;23;20001;-75
2022/11/28 09:47:12;;;;;;;19.00;11.27;;;;;;;;;;6158425;23;20076;-73
2022/11/28 09:49:49;;;;;;;20.92;12.18;;;;;;;;;;6163245;23;20068;-75
2022/11/28 09:52:21;;;;;;;21.65;12.90;;;;;;;;;;6157409;23;20371;-77
2022/11/28 09:54:51;;;;;;;27.30;13.32;;;;;;;;;;6156720;23;20025;-75
2022/11/28 09:57:43;;;;;;;21.95;12.00;;;;;;;;;;6155518;23;20002;-77
2022/11/28 10:00:20;;;;;;;24.50;14.35;;;;;;;;;;6151116;23;20430;-77
2022/11/28 10:02:46;;;;;;;24.55;13.73;;;;;;;;;;6154386;23;20085;-76
2022/11/28 10:05:18;;;;;;;20.83;13.00;;;;;;;;;;6154388;23;20041;-77
2022/11/28 10:07:47;;;;;;;24.42;14.40;;;;;;;;;;6128309;23;20120;-77
2022/11/28 10:10:36;;;;;;;22.98;14.02;;;;;;;;;;6155646;23;20008;-74
2022/11/28 10:13:11;;;;;;;21.00;13.68;;;;;;;;;;6156114;23;20032;-77
2022/11/28 10:15:46;;;;;;;22.73;13.65;;;;;;;;;;6128407;23;20004;-76
2022/11/28 10:18:33;;;;;;;23.27;14.13;;;;;;;;;;6156094;23;20333;-76
2022/11/28 10:21:02;;;;;;;25.40;14.13;;;;;;;;;;6155305;23;20009;-75
2022/11/28 10:23:31;;;;;;;21.63;13.55;;;;;;;;;;6152876;23;20001;-77
2022/11/28 10:26:01;;;;;;;21.92;13.80;;;;;;;;;;6150743;23;20052;-76
2022/11/28 10:28:34;;;;;;;23.60;14.32;;;;;;;;;;6152038;23;20076;-77
2022/11/28 10:31:11;;;;;;;22.20;13.40;;;;;;;;;;6152636;23;20072;-75
2022/11/28 10:33:43;;;;;;;21.48;14.15;;;;;;;;;;6151862;23;20337;-77
2022/11/28 10:36:15;;;;;;;22.38;14.10;;;;;;;;;;6152155;23;19998;-76
2022/11/28 10:38:41;;;;;;;25.35;14.57;;;;;;;;;;6127469;23;20084;-76
2022/11/28 10:41:12;;;;;;;24.75;15.15;;;;;;;;;;6154831;23;20386;-77
2022/11/28 10:44:01;;;;;;;22.17;13.82;;;;;;;;;;6155106;23;20010;-76
2022/11/28 10:46:28;;;;;;;36.38;15.93;;;;;;;;;;6155386;23;20009;-76
2022/11/28 10:49:03;;;;;;;25.42;14.43;;;;;;;;;;6155198;23;20002;-79
2022/11/28 10:51:45;;;;;;;20.58;13.50;;;;;;;;;;6155985;23;20021;-74
2022/11/28 10:54:13;;;;;;;29.23;15.63;;;;;;;;;;6155120;23;20461;-78
2022/11/28 10:56:52;;;;;;;32.83;15.18;;;;;;;;;;6155319;23;20048;-75
2022/11/28 10:59:24;;;;;;;23.25;14.45;;;;;;;;;;6154216;23;20009;-77
2022/11/28 11:01:50;;;;;;;23.80;15.18;;;;;;;;;;6154550;23;20473;-76
2022/11/28 11:04:20;;;;;;;27.92;15.55;;;;;;;;;;6154288;23;20085;-77
2022/11/28 11:06:58;;;;;;;28.73;16.50;;;;;;;;;;6154648;23;20379;-76
2022/11/28 11:09:24;;;;;;;24.30;13.95;;;;;;;;;;6155057;23;20005;-77
2022/11/28 11:11:54;;;;;;;24.90;15.95;;;;;;;;;;6154468;23;20446;-76
2022/11/28 11:14:32;;;;;;;24.10;14.53;;;;;;;;;;6128741;23;20008;-74
2022/11/28 11:16:58;;;;;;;25.15;14.55;;;;;;;;;;6155417;23;20001;-75
2022/11/28 11:19:37;;;;;;;25.35;15.45;;;;;;;;;;6154994;23;20009;-76
2022/11/28 11:22:18;;;;;;;23.73;15.15;;;;;;;;;;6155328;23;20009;-75
2022/11/28 11:24:44;;;;;;;25.73;15.80;;;;;;;;;;6155736;23;20350;-80
2022/11/28 11:27:19;;;;;;;24.30;15.40;;;;;;;;;;6128533;23;20090;-77
2022/11/28 11:29:45;;;;;;;25.55;14.75;;;;;;;;;;6155381;23;20005;-76
2022/11/28 11:32:37;;;;;;;31.23;15.93;;;;;;;;;;6154934;23;20048;-78
2022/11/28 11:35:03;;;;;;;27.67;15.18;;;;;;;;;;6151868;23;20522;-77
2022/11/28 11:37:37;;;;;;;26.98;16.25;;;;;;;;;;6154595;23;20002;-73
2022/11/28 11:40:16;;;;;;;24.27;15.55;;;;;;;;;;6154731;23;20012;-74
2022/11/28 11:42:51;;;;;;;25.27;15.27;;;;;;;;;;6155069;23;20005;-77
2022/11/28 11:45:30;;;;;;;22.42;14.88;;;;;;;;;;6128582;23;20060;-77
2022/11/28 11:47:57;;;;;;;24.83;15.90;;;;;;;;;;6154939;23;20389;-77
2022/11/28 11:50:24;;;;;;;21.90;14.55;;;;;;;;;;6155200;23;20584;-77
2022/11/28 11:53:06;;;;;;;25.77;16.30;;;;;;;;;;6155190;23;20002;-75
2022/11/28 11:55:37;;;;;;;21.83;14.35;;;;;;;;;;6155684;23;20073;-77
2022/11/28 11:58:04;;;;;;;22.40;14.60;;;;;;;;;;6157114;23;19998;-77
2022/11/28 12:00:38;;;;;;;26.90;15.18;;;;;;;;;;6161513;23;20038;-78
2022/11/28 12:03:16;;;;;;;22.95;13.82;;;;;;;;;;6161959;23;20008;-77
2022/11/28 12:05:56;;;;;;;26.17;14.93;;;;;;;;;;6132818;23;20024;-76
2022/11/28 12:08:32;;;;;;;19.50;11.63;;;;;;;;;;6158493;23;20006;-76
2022/11/28 12:11:05;;;;;;;24.83;15.10;;;;;;;;;;6159476;23;20001;-77
2022/11/28 12:13:32;;;;;;;27.23;16.00;;;;;;;;;;6161553;23;20450;-76
2022/11/28 12:16:08;;;;;;;25.08;16.35;;;;;;;;;;6162470;23;20009;-76
2022/11/28 12:18:40;;;;;;;27.77;15.15;;;;;;;;;;6148275;23;19998;-76
2022/11/28 12:21:13;;;;;;;26.13;15.82;;;;;;;;;;6169094;23;20017;-75
2022/11/28 12:23:45;;;;;;;26.38;16.73;;;;;;;;;;6167434;23;20002;-75
2022/11/28 12:26:30;;;;;;;29.95;15.55;;;;;;;;;;6169079;23;20076;-75
2022/11/28 12:28:56;;;;;;;25.63;15.60;;;;;;;;;;6162568;23;20016;-75
2022/11/28 12:31:31;;;;;;;26.67;16.58;;;;;;;;;;6156698;23;20005;-76
2022/11/28 12:34:14;;;;;;;23.83;15.40;;;;;;;;;;6156443;23;20006;-75
2022/11/28 12:36:59;;;;;;;23.83;15.30;;;;;;;;;;6156413;23;20069;-75
2022/11/28 12:39:31;;;;;;;25.60;15.95;;;;;;;;;;6155960;23;20005;-75
2022/11/28 12:42:08;;;;;;;27.10;15.75;;;;;;;;;;6155882;23;20029;-74
2022/11/28 12:45:54;;;;;;;23.90;15.40;;;;;;;;;;5110798;27;20306;-77
2022/11/28 12:48:20;;;;;;;24.73;15.38;;;;;;;;;;5110417;28;20023;-77
2022/11/28 12:50:50;;;;;;;24.05;14.73;;;;;;;;;;5110750;28;20030;-77
2022/11/28 12:53:28;;;;;;;24.70;14.43;;;;;;;;;;5099850;28;20107;-76
2022/11/28 12:56:09;;;;;;;23.75;14.02;;;;;;;;;;5098555;28;20027;-76
2022/11/28 12:58:35;;;;;;;17.05;10.82;;;;;;;;;;5118627;28;20102;-77
2022/11/28 13:01:13;;;;;;;28.50;14.93;;;;;;;;;;5130860;28;20103;-77
2022/11/28 13:03:48;;;;;;;26.45;14.98;;;;;;;;;;5130980;28;20031;-76
2022/11/28 13:06:17;;;;;;;24.20;13.98;;;;;;;;;;5110699;28;20129;-77
2022/11/28 13:08:46;;;;;;;25.45;15.90;;;;;;;;;;5105592;28;20048;-75
2022/11/28 13:11:18;;;;;;;25.98;15.07;;;;;;;;;;5111571;28;20105;-75
2022/11/28 13:13:44;;;;;;;30.25;16.42;;;;;;;;;;5124942;28;20023;-73
2022/11/28 13:16:10;;;;;;;23.85;14.27;;;;;;;;;;5112376;28;20343;-75
2022/11/28 13:18:40;;;;;;;27.42;16.15;;;;;;;;;;5129878;28;20052;-77
2022/11/28 13:21:15;;;;;;;27.77;16.50;;;;;;;;;;5111527;28;20019;-76
2022/11/28 13:23:46;;;;;;;29.33;16.27;;;;;;;;;;5125287;28;20020;-76
2022/11/28 13:26:24;;;;;;;26.90;15.88;;;;;;;;;;5091867;28;20019;-76
2022/11/28 13:28:54;;;;;;;24.55;16.20;;;;;;;;;;5109555;28;20062;-77
2022/11/28 13:31:52;;;;;;;30.35;17.50;;;;;;;;;;5108861;28;20079;-75
2022/11/28 13:34:19;;;;;;;26.65;16.00;;;;;;;;;;5053614;28;20036;-75
2022/11/28 13:36:51;;;;;;;26.77;16.33;;;;;;;;;;5108971;28;20027;-77
2022/11/28 13:39:20;;;;;;;28.98;15.52;;;;;;;;;;5108509;28;20032;-76
2022/11/28 13:41:53;;;;;;;26.45;15.70;;;;;;;;;;5108891;28;20119;-74
2022/11/28 13:44:32;;;;;;;28.15;15.75;;;;;;;;;;5090541;28;20032;-77
2022/11/28 13:47:11;;;;;;;25.58;15.27;;;;;;;;;;5109702;28;20020;-76
2022/11/28 13:49:37;;;;;;;27.13;15.25;;;;;;;;;;5109982;28;20485;-77
2022/11/28 13:52:28;;;;;;;26.40;15.73;;;;;;;;;;5104652;28;20024;-78
2022/11/28 13:54:54;;;;;;;27.05;16.17;;;;;;;;;;5106092;28;20027;-77
2022/11/28 13:57:38;;;;;;;26.17;15.98;;;;;;;;;;5094579;28;20030;-77
2022/11/28 14:00:22;;;;;;;28.88;17.08;;;;;;;;;;5093653;28;20508;-77
2022/11/28 14:02:53;;;;;;;23.98;14.10;;;;;;;;;;5074833;28;20028;-78
2022/11/28 14:05:31;;;;;;;24.60;14.73;;;;;;;;;;5093270;28;20039;-78
2022/11/28 14:07:57;;;;;;;27.80;15.18;;;;;;;;;;5093737;28;20044;-77
2022/11/28 14:10:59;;;;;;;27.65;15.93;;;;;;;;;;5094125;28;20099;-77
2022/11/28 14:13:25;;;;;;;;;;;;;;;;;;4975834;28;20034;-76
2022/11/28 14:16:09;;;;;;;24.88;14.85;;;;;;;;;;5057232;28;19962;-78
2022/11/28 14:18:43;;;;;;;30.52;16.75;;;;;;;;;;5077309;28;20031;-78
2022/11/28 14:21:35;;;;;;;29.13;16.35;;;;;;;;;;5078024;28;20024;-78
2022/11/28 14:24:04;;;;;;;28.67;16.70;;;;;;;;;;5091387;28;20063;-77
2022/11/28 14:26:34;;;;;;;29.25;16.15;;;;;;;;;;5095771;28;20072;-78
2022/11/28 14:29:02;;;;;;;27.95;16.27;;;;;;;;;;5095382;28;20020;-79
2022/11/28 14:31:33;;;;;;;29.90;16.88;;;;;;;;;;5095590;28;20394;-78
2022/11/28 14:34:25;;;;;;;31.58;17.50;;;;;;;;;;5095300;28;20028;-76
2022/11/28 14:37:14;;;;;;;29.50;16.77;;;;;;;;;;5095175;28;20486;-77
2022/11/28 14:39:40;;;;;;;30.70;17.52;;;;;;;;;;5078027;28;20124;-77